• Join FlightAware (Why Join?)
  • Login
  • US Flag 
08:59AM EDT


 

Airport Tracker/Info


-or-


 

Live Flight TrackerFlight Track Log ✈ SWA1377 ✈ 29-Apr-2013 ✈ KSAT - KMDW

Flight Track Log - Related Links

Times and Time Zones

All times are in EDT time to prevent confusion due to time zone crossing. See the SWA1377 flight status page for this flight to view local times or setup timezone preferences in your user account.

Time Position Orientation Groundspeed Altitude Reporting Facility
EDT Latitude Longitude Course Direction KTS MPH feet Rate Location/Type
07:08AM 29.5467 -98.4492 39° Northeast 164 189 1,500  Level Houston Center
07:08AM 29.5608 -98.4358 39° Northeast 166 191 2,200 1,920 Climbing Houston Center
07:09AM 29.6125 -98.3997 31° Northeast 227 261 4,100 2,280 Climbing Houston Center
07:10AM 29.6883 -98.4042 357° North 278 320 6,900 3,300 Climbing Houston Center
07:11AM 29.7700 -98.4006 North 294 338 10,800 3,300 Climbing Houston Center
07:12AM 29.8642 -98.3983 North 343 395 13,600 3,060 Climbing Houston Center
07:13AM 29.9619 -98.3658 16° North 367 422 17,000 3,420 Climbing Houston Center
07:14AM 30.0689 -98.3244 19° North 374 430 20,500 3,000 Climbing Houston Center
07:15AM 30.1725 -98.2828 19° North 391 450 23,100 2,520 Climbing Houston Center
07:16AM 30.2794 -98.2406 19° North 405 466 25,600 2,100 Climbing Houston Center
07:17AM 30.3794 -98.2025 18° North 421 484 27,400 1,620 Climbing Houston Center
07:18AM 30.4958 -98.1558 19° North 436 502 28,900 1,620 Climbing Houston Center
07:19AM 30.6181 -98.1078 19° North 452 520 30,700 1,980 Climbing Houston Center
07:20AM 30.7414 -98.0589 19° North 459 528 33,000 1,800 Climbing Houston Center
07:21AM 30.8636 -98.0103 19° North 457 526 34,400 1,320 Climbing Houston Center
07:22AM 30.9322 -97.9847 18° North 452 520 35,000 1,920 Climbing Fort Worth Center
07:23AM 31.0514 -97.9369 19° North 458 527 37,200 1,800 Climbing Fort Worth Center
07:24AM 31.1686 -97.8892 19° North 446 513 38,700 900 Climbing Fort Worth Center
07:25AM 31.2878 -97.8411 19° North 441 507 39,000 120 Climbing Fort Worth Center
07:26AM 31.4047 -97.7956 18° North 441 507 39,000  Level Fort Worth Center
07:27AM 31.5092 -97.7519 20° North 441 507 39,000  Level Fort Worth Center
07:28AM 31.6283 -97.7036 19° North 441 507 39,000  Level Fort Worth Center
07:29AM 31.7453 -97.6578 18° North 441 507 39,000  Level Fort Worth Center
07:30AM 31.8625 -97.6092 19° North 441 507 39,000  Level Fort Worth Center
07:31AM 31.9836 -97.5556 21° North 435 501 39,000  Level Fort Worth Center
07:32AM 32.1006 -97.5092 19° North 435 501 39,000  Level Fort Worth Center
07:33AM 32.2175 -97.4600 20° North 435 501 39,000  Level Fort Worth Center
07:34AM 32.3303 -97.4061 22° Northeast 435 501 39,000  Level Fort Worth Center
07:35AM 32.4367 -97.3272 32° Northeast 435 501 39,000  Level Fort Worth Center
07:36AM 32.5411 -97.2483 32° Northeast 442 509 39,000  Level Fort Worth Center
07:37AM 32.6472 -97.1667 33° Northeast 447 514 39,000  Level Fort Worth Center
07:38AM 32.7514 -97.0847 33° Northeast 447 514 39,000  Level Fort Worth Center
07:39AM 32.8472 -97.0128 32° Northeast 452 520 39,000  Level Fort Worth Center
07:40AM 32.9619 -96.9256 33° Northeast 447 514 39,000  Level Fort Worth Center
07:41AM 33.0700 -96.8433 33° Northeast 456 525 39,000  Level Fort Worth Center
07:42AM 33.1719 -96.7631 33° Northeast 447 514 39,000  Level Fort Worth Center
07:43AM 33.2675 -96.6906 32° Northeast 447 514 39,000  Level Fort Worth Center
07:44AM 33.3694 -96.6125 33° Northeast 442 509 39,000  Level Fort Worth Center
07:45AM 33.4711 -96.5344 33° Northeast 435 501 39,000  Level Fort Worth Center
07:46AM 33.5750 -96.4561 32° Northeast 434 499 39,000  Level Fort Worth Center
07:47AM 33.6744 -96.3775 33° Northeast 434 499 39,000  Level Fort Worth Center
07:48AM 33.7781 -96.2964 33° Northeast 434 499 39,000  Level Fort Worth Center
07:49AM 33.8775 -96.2200 33° Northeast 429 494 39,000  Level Fort Worth Center
07:50AM 33.9875 -96.1333 33° Northeast 429 494 39,000  Level Fort Worth Center
07:51AM 34.0889 -96.0517 34° Northeast 437 503 39,000  Level Fort Worth Center
07:52AM 34.1839 -95.9725 35° Northeast 425 489 39,000  Level Fort Worth Center
07:53AM 34.2831 -95.8953 33° Northeast 425 489 39,000  Level Fort Worth Center
07:54AM 34.3886 -95.8131 33° Northeast 431 496 39,000  Level Fort Worth Center
07:55AM 34.4875 -95.7331 34° Northeast 431 496 39,000  Level Fort Worth Center
07:56AM 34.5886 -95.6503 34° Northeast 431 496 39,000  Level Fort Worth Center
07:57AM 34.6919 -95.5700 33° Northeast 431 496 39,000  Level Fort Worth Center
07:58AM 34.7867 -95.4972 32° Northeast 436 502 39,000  Level Fort Worth Center
08:00AM 35.0092 -95.3103 35° Northeast 438 504 39,000  Level Kansas City Center
08:01AM 35.1125 -95.2264 34° Northeast 442 509 39,000  Level Kansas City Center
08:02AM 35.2131 -95.1436 34° Northeast 439 505 39,000  Level Kansas City Center
08:03AM 35.3147 -95.0608 34° Northeast 439 505 39,000  Level Kansas City Center
08:04AM 35.4161 -94.9808 33° Northeast 431 496 39,000  Level Memphis Center
08:05AM 35.5150 -94.8997 34° Northeast 431 496 39,000  Level Memphis Center
08:06AM 35.6161 -94.8158 34° Northeast 431 496 39,000  Level Memphis Center
08:07AM 35.7169 -94.7319 34° Northeast 431 496 39,000  Level Memphis Center
08:08AM 35.8181 -94.6475 34° Northeast 431 496 39,000  Level Memphis Center
08:09AM 35.9167 -94.5631 35° Northeast 431 496 39,000  Level Memphis Center
08:10AM 36.0175 -94.4783 34° Northeast 431 496 39,000  Level Memphis Center
08:11AM 36.1183 -94.3936 34° Northeast 431 496 39,000  Level Memphis Center
08:12AM 36.2192 -94.3083 34° Northeast 431 496 39,000  Level Memphis Center
08:14AM 36.4419 -94.1222 34° Northeast 442 509 39,000  Level Kansas City Center
08:15AM 36.5439 -94.0361 34° Northeast 442 509 39,000  Level Kansas City Center
08:16AM 36.6444 -93.9497 35° Northeast 439 505 39,000  Level Kansas City Center
08:17AM 36.7453 -93.8636 34° Northeast 439 505 39,000  Level Kansas City Center
08:18AM 36.8661 -93.7589 35° Northeast 439 505 39,000  Level Kansas City Center
08:19AM 36.9625 -93.6747 35° Northeast 431 496 39,000  Level Kansas City Center
08:20AM 37.0639 -93.5856 35° Northeast 438 504 39,000  Level Kansas City Center
08:21AM 37.1656 -93.4986 34° Northeast 440 506 39,000  Level Kansas City Center
08:22AM 37.2683 -93.4125 34° Northeast 442 509 39,000  Level Kansas City Center
08:23AM 37.3708 -93.3211 35° Northeast 450 518 39,000  Level Kansas City Center
08:24AM 37.4703 -93.2317 36° Northeast 443 510 39,000  Level Kansas City Center
08:25AM 37.5683 -93.1378 37° Northeast 440 506 39,000  Level Kansas City Center
08:26AM 37.6703 -93.0450 36° Northeast 446 513 39,000  Level Kansas City Center
08:28AM 37.7703 -92.9514 36° Northeast 445 512 39,000  Level Kansas City Center
08:29AM 37.8708 -92.8572 36° Northeast 445 512 39,000  Level Kansas City Center
08:30AM 37.9925 -92.7431 36° Northeast 448 516 39,000  Level Kansas City Center
08:31AM 38.0797 -92.6614 36° Northeast 447 514 39,000  Level Kansas City Center
08:32AM 38.1964 -92.5517 36° Northeast 448 516 39,000  Level Kansas City Center
08:33AM 38.2961 -92.4561 37° Northeast 444 511 39,000  Level Kansas City Center
08:34AM 38.3958 -92.3614 37° Northeast 442 509 39,000  Level Kansas City Center
08:35AM 38.4933 -92.2667 37° Northeast 439 505 39,000  Level Kansas City Center
08:36AM 38.5914 -92.1733 37° Northeast 438 504 39,000  Level Kansas City Center
08:37AM 38.6897 -92.0797 37° Northeast 438 504 39,000  Level Kansas City Center
08:38AM 38.7875 -91.9856 37° Northeast 439 505 39,000  Level Kansas City Center
08:39AM 38.8864 -91.8897 37° Northeast 440 506 39,000  Level Kansas City Center
08:40AM 38.9847 -91.7933 37° Northeast 442 509 39,000  Level Kansas City Center
08:41AM 39.0847 -91.6953 37° Northeast 445 512 39,000  Level Kansas City Center
08:42AM 39.1828 -91.6017 36° Northeast 447 514 39,000  Level Kansas City Center
08:43AM 39.2831 -91.5028 37° Northeast 450 518 39,000  Level Kansas City Center
08:44AM 39.3797 -91.4075 37° Northeast 443 510 39,000 -360 Level Kansas City Center
08:45AM 39.4958 -91.2933 37° Northeast 438 504 38,300 -840 Descending Kansas City Center
08:46AM 39.5928 -91.1956 38° Northeast 439 505 37,400 -960 Descending Kansas City Center
08:47AM 39.6917 -91.0986 37° Northeast 442 509 36,400 -900 Descending Kansas City Center
08:48AM 39.7747 -90.9953 44° Northeast 453 521 35,600 -840 Descending Kansas City Center
08:49AM 39.8761 -90.8625 45° Northeast 450 518 34,800 -900 Descending Kansas City Center
08:50AM 39.9658 -90.7453 45° Northeast 454 522 33,800 -1,080 Descending Kansas City Center
08:51AM 40.0522 -90.6308 45° Northeast 447 514 32,700 -1,080 Descending Kansas City Center
08:52AM 40.1383 -90.5181 45° Northeast 441 507 31,700 -1,020 Descending Kansas City Center
08:53AM 40.2044 -90.4300 45° Northeast 431 496 31,000 -420 Descending Chicago Center
08:54AM 40.2872 -90.3214 45° Northeast 425 489 31,000 -780 Level Chicago Center
08:55AM 40.3731 -90.2069 45° Northeast 437 503 29,500 -1,320 Descending Chicago Center
08:56AM 40.4703 -90.0756 46° Northeast 460 529 28,300 -1,140 Descending Chicago Center
08:57AM 40.5608 -89.9531 46° Northeast 468 539 27,200 -1,560 Descending Chicago Center
08:58AM 40.6369 -89.8267 52° Northeast 445 512 25,100 -1,680 Descending Chicago Center
08:59AM 40.7139 -89.7019 51° Northeast 442 509 23,800 -1,680 Descending Chicago Center
09:00AM 40.7919 -89.5778 50° Northeast 437 503 21,700 -2,340 Descending Chicago Center
09:01AM 40.8700 -89.4517 51° Northeast 424 488 19,000 -2,400 Descending Chicago Center
09:02AM 40.9389 -89.3381 51° Northeast 400 460 16,800 -1,620 Descending Chicago Center
09:03AM 41.0061 -89.2286 51° Northeast 386 444 15,800 -1,080 Descending Chicago Center
09:04AM 41.0808 -89.1028 52° Northeast 384 442 14,700 -1,020 Descending Chicago Center
09:05AM 41.1458 -88.9944 51° Northeast 378 435 13,700 -1,380 Descending Chicago Center
09:06AM 41.2106 -88.8856 52° Northeast 376 433 11,900 -1,920 Descending Chicago Center
09:07AM 41.2814 -88.7678 51° Northeast 341 392 9,800 -1,560 Descending Chicago Center
09:08AM 41.3303 -88.6811 53° Northeast 300 345 8,700 -1,260 Descending Chicago Center
09:09AM 41.3794 -88.5994 51° Northeast 285 328 7,300 -1,320 Descending Chicago Center
09:10AM 41.4283 -88.5197 51° Northeast 280 322 6,000 -660 Descending Chicago Center
09:11AM 41.4753 -88.4386 52° Northeast 277 319 6,000 -60 Level Chicago Center
09:12AM 41.5219 -88.3569 53° Northeast 276 318 5,900 -540 Descending Chicago Center
09:13AM 41.5397 -88.2556 77° East 278 320 5,000 -480 Descending Chicago Center
09:14AM 41.5572 -88.1364 79° East 270 311 5,000  Level Chicago Center
09:15AM 41.5592 -88.0353 88° East 270 311 5,000  Level Chicago Center
09:17AM 41.5622 -87.9350 88° East 269 310 5,000  Level Chicago Center
09:18AM 41.5653 -87.8444 87° East 254 292 5,000  Level Chicago Center
09:19AM 41.5669 -87.7711 88° East 225 259 5,000  Level Chicago Center
09:20AM 41.5689 -87.7039 88° East 200 230 5,000 -480 Level Chicago Center
09:21AM 41.5969 -87.6514 54° Northeast 195 224 4,100 -1,020 Descending Chicago Center
09:22AM 41.6475 -87.6033 35° Northeast 190 219 3,000 -780 Descending Chicago Center
09:23AM 41.6942 -87.6228 343° North 189 217 2,500 -360 Descending Chicago Center
09:23AM 41.7167 -87.6500 318° Northwest 165 190 2,500 -300 Level Chicago TRACON
09:24AM 41.7500 -87.6667 340° North 159 183 2,100 -360 Descending Chicago TRACON
09:25AM 41.7833 -87.6833 340° North 138 159 1,800 -420 Descending Chicago TRACON
09:26AM 41.8167 -87.7167 323° Northwest 123 142 1,300 -540 Descending Chicago TRACON